sensor_id;sensor_type;location;lat;lon;timestamp;P1;durP1;ratioP1;P2;durP2;ratioP2
78013;SDS011;67222;50.182;8.734;2023-11-18T06:32:03;14.35;;;6.32;;
78013;SDS011;67222;50.182;8.734;2023-11-18T06:34:30;13.23;;;5.75;;
78013;SDS011;67222;50.182;8.734;2023-11-18T06:36:56;15.95;;;7.03;;
78013;SDS011;67222;50.182;8.734;2023-11-18T06:39:21;15.93;;;6.50;;
78013;SDS011;67222;50.182;8.734;2023-11-18T06:41:54;14.45;;;6.03;;
78013;SDS011;67222;50.182;8.734;2023-11-18T06:44:19;15.70;;;7.03;;
78013;SDS011;67222;50.182;8.734;2023-11-18T06:46:48;16.85;;;6.70;;
78013;SDS011;67222;50.182;8.734;2023-11-18T06:49:15;18.27;;;7.85;;
78013;SDS011;67222;50.182;8.734;2023-11-18T06:51:41;19.27;;;7.63;;
78013;SDS011;67222;50.182;8.734;2023-11-18T06:54:07;21.08;;;9.55;;
78013;SDS011;67222;50.182;8.734;2023-11-18T06:56:36;17.20;;;7.85;;
78013;SDS011;67222;50.182;8.734;2023-11-18T06:59:07;15.82;;;6.97;;
78013;SDS011;67222;50.182;8.734;2023-11-18T07:01:35;17.13;;;7.25;;
78013;SDS011;67222;50.182;8.734;2023-11-18T07:04:01;19.65;;;7.03;;
78013;SDS011;67222;50.182;8.734;2023-11-18T07:06:27;21.58;;;8.20;;
78013;SDS011;67222;50.182;8.734;2023-11-18T07:08:52;16.20;;;8.00;;
78013;SDS011;67222;50.182;8.734;2023-11-18T07:11:20;18.70;;;6.82;;
78013;SDS011;67222;50.182;8.734;2023-11-18T07:13:46;18.48;;;8.45;;
78013;SDS011;67222;50.182;8.734;2023-11-18T07:16:12;22.20;;;9.82;;
78013;SDS011;67222;50.182;8.734;2023-11-18T07:18:39;18.23;;;8.60;;
78013;SDS011;67222;50.182;8.734;2023-11-18T07:21:05;15.35;;;6.35;;
78013;SDS011;67222;50.182;8.734;2023-11-18T07:23:31;16.58;;;6.63;;
78013;SDS011;67222;50.182;8.734;2023-11-18T07:25:56;17.17;;;7.47;;
78013;SDS011;67222;50.182;8.734;2023-11-18T07:28:22;15.90;;;7.30;;
78013;SDS011;67222;50.182;8.734;2023-11-18T07:30:48;22.50;;;7.60;;
78013;SDS011;67222;50.182;8.734;2023-11-18T07:33:16;20.90;;;7.82;;
78013;SDS011;67222;50.182;8.734;2023-11-18T07:35:42;17.38;;;8.00;;
78013;SDS011;67222;50.182;8.734;2023-11-18T07:38:08;17.95;;;8.73;;
78013;SDS011;67222;50.182;8.734;2023-11-18T07:40:34;18.63;;;7.00;;
78013;SDS011;67222;50.182;8.734;2023-11-18T07:43:00;15.18;;;6.68;;
78013;SDS011;67222;50.182;8.734;2023-11-18T07:45:28;20.50;;;7.20;;
78013;SDS011;67222;50.182;8.734;2023-11-18T07:48:04;20.20;;;6.05;;
78013;SDS011;67222;50.182;8.734;2023-11-18T07:53:05;23.63;;;7.88;;
78013;SDS011;67222;50.182;8.734;2023-11-18T07:55:31;32.40;;;7.43;;
78013;SDS011;67222;50.182;8.734;2023-11-18T07:57:59;15.65;;;6.65;;
78013;SDS011;67222;50.182;8.734;2023-11-18T08:00:24;20.83;;;7.38;;
78013;SDS011;67222;50.182;8.734;2023-11-18T08:02:51;18.45;;;6.88;;
78013;SDS011;67222;50.182;8.734;2023-11-18T08:05:19;18.65;;;6.60;;
78013;SDS011;67222;50.182;8.734;2023-11-18T08:07:45;19.08;;;7.68;;
78013;SDS011;67222;50.182;8.734;2023-11-18T08:10:10;18.27;;;7.37;;
78013;SDS011;67222;50.182;8.734;2023-11-18T08:12:38;15.35;;;7.10;;
78013;SDS011;67222;50.182;8.734;2023-11-18T08:15:04;18.92;;;5.80;;
78013;SDS011;67222;50.182;8.734;2023-11-18T08:17:31;20.23;;;7.63;;
78013;SDS011;67222;50.182;8.734;2023-11-18T08:19:57;21.52;;;7.10;;
78013;SDS011;67222;50.182;8.734;2023-11-18T08:22:22;17.30;;;7.10;;
78013;SDS011;67222;50.182;8.734;2023-11-18T08:24:49;17.23;;;6.82;;
78013;SDS011;67222;50.182;8.734;2023-11-18T08:27:15;17.13;;;7.40;;
78013;SDS011;67222;50.182;8.734;2023-11-18T08:29:40;20.02;;;6.97;;
78013;SDS011;67222;50.182;8.734;2023-11-18T08:32:06;27.98;;;7.97;;
78013;SDS011;67222;50.182;8.734;2023-11-18T08:34:34;35.33;;;8.20;;
78013;SDS011;67222;50.182;8.734;2023-11-18T08:37:00;19.80;;;8.80;;
78013;SDS011;67222;50.182;8.734;2023-11-18T08:39:28;29.80;;;10.15;;
78013;SDS011;67222;50.182;8.734;2023-11-18T08:41:54;23.35;;;9.35;;
78013;SDS011;67222;50.182;8.734;2023-11-18T08:44:19;23.92;;;7.03;;
78013;SDS011;67222;50.182;8.734;2023-11-18T08:46:45;21.50;;;7.45;;
78013;SDS011;67222;50.182;8.734;2023-11-18T08:49:10;23.58;;;9.73;;
78013;SDS011;67222;50.182;8.734;2023-11-18T08:51:38;19.13;;;8.07;;
78013;SDS011;67222;50.182;8.734;2023-11-18T08:54:06;18.60;;;7.15;;
78013;SDS011;67222;50.182;8.734;2023-11-18T08:59:15;20.90;;;7.50;;
78013;SDS011;67222;50.182;8.734;2023-11-18T09:01:42;22.48;;;7.45;;
78013;SDS011;67222;50.182;8.734;2023-11-18T09:04:07;22.93;;;7.50;;
78013;SDS011;67222;50.182;8.734;2023-11-18T09:06:32;19.97;;;8.17;;
78013;SDS011;67222;50.182;8.734;2023-11-18T09:08:58;19.52;;;7.40;;
78013;SDS011;67222;50.182;8.734;2023-11-18T09:11:25;22.52;;;7.78;;
78013;SDS011;67222;50.182;8.734;2023-11-18T09:13:57;17.95;;;6.93;;
78013;SDS011;67222;50.182;8.734;2023-11-18T09:16:25;21.67;;;8.05;;
78013;SDS011;67222;50.182;8.734;2023-11-18T09:18:54;22.30;;;8.15;;
78013;SDS011;67222;50.182;8.734;2023-11-18T09:21:21;18.50;;;7.72;;
78013;SDS011;67222;50.182;8.734;2023-11-18T09:23:50;18.40;;;7.63;;
78013;SDS011;67222;50.182;8.734;2023-11-18T09:26:15;20.08;;;7.72;;
78013;SDS011;67222;50.182;8.734;2023-11-18T09:28:41;17.75;;;7.50;;
78013;SDS011;67222;50.182;8.734;2023-11-18T09:31:07;19.80;;;7.95;;
78013;SDS011;67222;50.182;8.734;2023-11-18T09:33:37;21.23;;;8.63;;
78013;SDS011;67222;50.182;8.734;2023-11-18T09:36:06;22.65;;;9.25;;
78013;SDS011;67222;50.182;8.734;2023-11-18T09:38:33;19.13;;;8.70;;
78013;SDS011;67222;50.182;8.734;2023-11-18T09:41:05;20.38;;;8.55;;
78013;SDS011;67222;50.182;8.734;2023-11-18T09:43:42;16.00;;;7.75;;
78013;SDS011;67222;50.182;8.734;2023-11-18T09:46:30;17.35;;;6.85;;
78013;SDS011;67222;50.182;8.734;2023-11-18T09:51:58;15.57;;;6.43;;
78013;SDS011;67222;50.182;8.734;2023-11-18T09:54:36;14.63;;;7.22;;
78013;SDS011;67222;50.182;8.734;2023-11-18T10:00:05;18.77;;;7.95;;
78013;SDS011;67222;50.182;8.734;2023-11-18T10:02:50;17.90;;;6.82;;
78013;SDS011;67222;50.182;8.734;2023-11-18T10:05:16;17.02;;;7.65;;
78013;SDS011;67222;50.182;8.734;2023-11-18T10:07:49;20.75;;;7.88;;
78013;SDS011;67222;50.182;8.734;2023-11-18T10:10:16;17.55;;;7.32;;
78013;SDS011;67222;50.182;8.734;2023-11-18T10:12:45;16.70;;;6.78;;
78013;SDS011;67222;50.182;8.734;2023-11-18T10:15:17;15.68;;;7.28;;
78013;SDS011;67222;50.182;8.734;2023-11-18T10:17:44;18.83;;;7.47;;
78013;SDS011;67222;50.182;8.734;2023-11-18T10:20:50;19.90;;;7.97;;
78013;SDS011;67222;50.182;8.734;2023-11-18T10:23:20;19.52;;;8.48;;
78013;SDS011;67222;50.182;8.734;2023-11-18T10:25:48;19.40;;;8.23;;
78013;SDS011;67222;50.182;8.734;2023-11-18T10:28:27;17.88;;;7.75;;
78013;SDS011;67222;50.182;8.734;2023-11-18T10:31:00;17.20;;;7.30;;
78013;SDS011;67222;50.182;8.734;2023-11-18T10:33:37;19.17;;;7.97;;
78013;SDS011;67222;50.182;8.734;2023-11-18T10:36:06;17.00;;;7.90;;
78013;SDS011;67222;50.182;8.734;2023-11-18T10:38:47;18.70;;;8.52;;
78013;SDS011;67222;50.182;8.734;2023-11-18T10:41:14;23.30;;;9.77;;
78013;SDS011;67222;50.182;8.734;2023-11-18T10:43:41;20.48;;;9.18;;
78013;SDS011;67222;50.182;8.734;2023-11-18T10:46:09;18.13;;;8.00;;
78013;SDS011;67222;50.182;8.734;2023-11-18T10:48:41;19.75;;;8.95;;
78013;SDS011;67222;50.182;8.734;2023-11-18T10:51:08;21.27;;;9.73;;
78013;SDS011;67222;50.182;8.734;2023-11-18T10:53:36;24.65;;;9.45;;
78013;SDS011;67222;50.182;8.734;2023-11-18T10:56:03;21.40;;;8.13;;
78013;SDS011;67222;50.182;8.734;2023-11-18T10:58:36;22.77;;;8.98;;
78013;SDS011;67222;50.182;8.734;2023-11-18T11:01:06;22.15;;;9.05;;
78013;SDS011;67222;50.182;8.734;2023-11-18T11:03:46;44.17;;;14.85;;
78013;SDS011;67222;50.182;8.734;2023-11-18T11:06:17;21.17;;;8.88;;
78013;SDS011;67222;50.182;8.734;2023-11-18T11:08:43;25.63;;;10.30;;
78013;SDS011;67222;50.182;8.734;2023-11-18T11:11:09;22.73;;;9.20;;
78013;SDS011;67222;50.182;8.734;2023-11-18T11:13:41;21.30;;;8.70;;
78013;SDS011;67222;50.182;8.734;2023-11-18T11:16:09;19.77;;;8.52;;
78013;SDS011;67222;50.182;8.734;2023-11-18T11:18:37;18.77;;;8.52;;
78013;SDS011;67222;50.182;8.734;2023-11-18T11:21:18;20.63;;;9.10;;
78013;SDS011;67222;50.182;8.734;2023-11-18T11:26:32;20.15;;;9.20;;
78013;SDS011;67222;50.182;8.734;2023-11-18T11:31:53;18.52;;;8.00;;
78013;SDS011;67222;50.182;8.734;2023-11-18T11:34:31;19.80;;;8.80;;
78013;SDS011;67222;50.182;8.734;2023-11-18T11:36:59;18.38;;;8.65;;
78013;SDS011;67222;50.182;8.734;2023-11-18T11:39:26;20.48;;;8.82;;
78013;SDS011;67222;50.182;8.734;2023-11-18T11:41:54;16.88;;;7.95;;
78013;SDS011;67222;50.182;8.734;2023-11-18T11:44:21;18.15;;;8.98;;
78013;SDS011;67222;50.182;8.734;2023-11-18T11:46:53;17.10;;;7.75;;
78013;SDS011;67222;50.182;8.734;2023-11-18T11:49:20;16.27;;;7.50;;
78013;SDS011;67222;50.182;8.734;2023-11-18T11:51:55;16.92;;;8.00;;
78013;SDS011;67222;50.182;8.734;2023-11-18T11:54:27;16.83;;;7.95;;
78013;SDS011;67222;50.182;8.734;2023-11-18T11:56:55;17.67;;;8.25;;
78013;SDS011;67222;50.182;8.734;2023-11-18T12:02:14;15.10;;;7.78;;
78013;SDS011;67222;50.182;8.734;2023-11-18T12:04:46;16.17;;;8.18;;
78013;SDS011;67222;50.182;8.734;2023-11-18T12:07:17;14.35;;;7.10;;
78013;SDS011;67222;50.182;8.734;2023-11-18T12:09:46;16.67;;;7.32;;
78013;SDS011;67222;50.182;8.734;2023-11-18T12:12:17;16.88;;;8.27;;
78013;SDS011;67222;50.182;8.734;2023-11-18T12:14:51;17.55;;;7.85;;
78013;SDS011;67222;50.182;8.734;2023-11-18T12:17:18;15.32;;;7.43;;
78013;SDS011;67222;50.182;8.734;2023-11-18T12:19:47;16.35;;;7.50;;
78013;SDS011;67222;50.182;8.734;2023-11-18T12:22:21;16.70;;;7.95;;
78013;SDS011;67222;50.182;8.734;2023-11-18T12:41:37;14.20;;;7.60;;
78013;SDS011;67222;50.182;8.734;2023-11-18T12:44:16;14.10;;;6.88;;
78013;SDS011;67222;50.182;8.734;2023-11-18T12:47:00;14.38;;;7.07;;
78013;SDS011;67222;50.182;8.734;2023-11-18T12:49:47;14.60;;;7.50;;
78013;SDS011;67222;50.182;8.734;2023-11-18T12:52:19;19.73;;;8.15;;
78013;SDS011;67222;50.182;8.734;2023-11-18T12:54:46;13.63;;;6.75;;
78013;SDS011;67222;50.182;8.734;2023-11-18T12:57:26;15.20;;;7.55;;
78013;SDS011;67222;50.182;8.734;2023-11-18T12:59:56;12.52;;;6.68;;
78013;SDS011;67222;50.182;8.734;2023-11-18T13:02:21;16.60;;;7.97;;
78013;SDS011;67222;50.182;8.734;2023-11-18T13:04:47;12.45;;;7.03;;
78013;SDS011;67222;50.182;8.734;2023-11-18T13:07:14;13.05;;;6.47;;
78013;SDS011;67222;50.182;8.734;2023-11-18T13:09:40;13.90;;;6.80;;
78013;SDS011;67222;50.182;8.734;2023-11-18T13:12:08;12.85;;;6.88;;
78013;SDS011;67222;50.182;8.734;2023-11-18T13:14:34;11.82;;;6.57;;
78013;SDS011;67222;50.182;8.734;2023-11-18T13:17:06;13.73;;;7.18;;
78013;SDS011;67222;50.182;8.734;2023-11-18T13:19:36;12.70;;;6.68;;
78013;SDS011;67222;50.182;8.734;2023-11-18T13:22:02;12.50;;;6.47;;
78013;SDS011;67222;50.182;8.734;2023-11-18T13:24:30;13.55;;;6.80;;
78013;SDS011;67222;50.182;8.734;2023-11-18T13:26:56;14.00;;;7.05;;
78013;SDS011;67222;50.182;8.734;2023-11-18T13:29:22;12.15;;;6.35;;
78013;SDS011;67222;50.182;8.734;2023-11-18T13:31:49;12.70;;;7.03;;
78013;SDS011;67222;50.182;8.734;2023-11-18T13:34:16;11.30;;;6.30;;
78013;SDS011;67222;50.182;8.734;2023-11-18T13:36:42;11.82;;;6.30;;
78013;SDS011;67222;50.182;8.734;2023-11-18T13:39:09;12.27;;;6.50;;
78013;SDS011;67222;50.182;8.734;2023-11-18T13:41:42;10.60;;;6.85;;
78013;SDS011;67222;50.182;8.734;2023-11-18T13:44:07;11.57;;;6.65;;
78013;SDS011;67222;50.182;8.734;2023-11-18T13:46:37;12.07;;;5.97;;
78013;SDS011;67222;50.182;8.734;2023-11-18T13:49:05;11.50;;;6.35;;
78013;SDS011;67222;50.182;8.734;2023-11-18T13:51:30;10.90;;;6.38;;
78013;SDS011;67222;50.182;8.734;2023-11-18T13:53:56;14.20;;;6.65;;
78013;SDS011;67222;50.182;8.734;2023-11-18T13:56:21;11.32;;;6.68;;
78013;SDS011;67222;50.182;8.734;2023-11-18T13:58:48;13.90;;;6.80;;
78013;SDS011;67222;50.182;8.734;2023-11-18T14:01:14;12.75;;;6.57;;
78013;SDS011;67222;50.182;8.734;2023-11-18T14:03:41;13.45;;;7.25;;
78013;SDS011;67222;50.182;8.734;2023-11-18T14:06:09;14.77;;;7.90;;
78013;SDS011;67222;50.182;8.734;2023-11-18T14:08:42;12.00;;;6.55;;
78013;SDS011;67222;50.182;8.734;2023-11-18T14:11:08;11.90;;;6.70;;
78013;SDS011;67222;50.182;8.734;2023-11-18T14:13:34;11.90;;;6.28;;
78013;SDS011;67222;50.182;8.734;2023-11-18T14:16:01;11.15;;;7.15;;
78013;SDS011;67222;50.182;8.734;2023-11-18T14:18:27;12.27;;;6.13;;
78013;SDS011;67222;50.182;8.734;2023-11-18T14:20:53;10.43;;;5.97;;
78013;SDS011;67222;50.182;8.734;2023-11-18T14:23:18;12.15;;;6.35;;
78013;SDS011;67222;50.182;8.734;2023-11-18T14:25:44;12.45;;;6.32;;
78013;SDS011;67222;50.182;8.734;2023-11-18T14:28:10;14.95;;;7.13;;
78013;SDS011;67222;50.182;8.734;2023-11-18T14:30:36;10.88;;;5.50;;
78013;SDS011;67222;50.182;8.734;2023-11-18T14:33:02;13.50;;;6.45;;
78013;SDS011;67222;50.182;8.734;2023-11-18T14:35:28;13.70;;;6.35;;
78013;SDS011;67222;50.182;8.734;2023-11-18T14:37:54;10.33;;;5.63;;
78013;SDS011;67222;50.182;8.734;2023-11-18T14:40:21;10.25;;;5.35;;
78013;SDS011;67222;50.182;8.734;2023-11-18T14:42:48;10.02;;;4.85;;
78013;SDS011;67222;50.182;8.734;2023-11-18T14:45:14;9.50;;;5.00;;
78013;SDS011;67222;50.182;8.734;2023-11-18T14:47:40;10.85;;;5.40;;
78013;SDS011;67222;50.182;8.734;2023-11-18T14:50:06;10.88;;;5.35;;
78013;SDS011;67222;50.182;8.734;2023-11-18T14:52:45;8.65;;;4.68;;
78013;SDS011;67222;50.182;8.734;2023-11-18T14:55:11;11.10;;;5.40;;
78013;SDS011;67222;50.182;8.734;2023-11-18T14:57:42;12.73;;;5.63;;
78013;SDS011;67222;50.182;8.734;2023-11-18T15:00:09;9.45;;;5.43;;
78013;SDS011;67222;50.182;8.734;2023-11-18T15:02:44;7.90;;;4.55;;
78013;SDS011;67222;50.182;8.734;2023-11-18T15:05:11;8.73;;;5.20;;
78013;SDS011;67222;50.182;8.734;2023-11-18T15:07:36;8.45;;;4.53;;
78013;SDS011;67222;50.182;8.734;2023-11-18T15:10:04;10.45;;;4.78;;
78013;SDS011;67222;50.182;8.734;2023-11-18T15:12:31;9.18;;;4.80;;
78013;SDS011;67222;50.182;8.734;2023-11-18T15:14:56;7.80;;;4.53;;
78013;SDS011;67222;50.182;8.734;2023-11-18T15:17:24;9.43;;;4.60;;
78013;SDS011;67222;50.182;8.734;2023-11-18T15:19:50;7.95;;;4.28;;
78013;SDS011;67222;50.182;8.734;2023-11-18T15:22:16;9.02;;;4.65;;
78013;SDS011;67222;50.182;8.734;2023-11-18T15:24:41;9.63;;;3.78;;
78013;SDS011;67222;50.182;8.734;2023-11-18T15:27:06;7.00;;;4.27;;
78013;SDS011;67222;50.182;8.734;2023-11-18T15:29:32;6.47;;;4.25;;
78013;SDS011;67222;50.182;8.734;2023-11-18T15:32:03;8.27;;;3.80;;
78013;SDS011;67222;50.182;8.734;2023-11-18T15:34:29;7.32;;;3.65;;
78013;SDS011;67222;50.182;8.734;2023-11-18T15:36:55;6.85;;;4.20;;
78013;SDS011;67222;50.182;8.734;2023-11-18T15:39:20;7.27;;;3.63;;
78013;SDS011;67222;50.182;8.734;2023-11-18T15:41:45;6.28;;;3.55;;
78013;SDS011;67222;50.182;8.734;2023-11-18T15:44:10;5.50;;;3.53;;
78013;SDS011;67222;50.182;8.734;2023-11-18T15:46:38;7.28;;;3.50;;
78013;SDS011;67222;50.182;8.734;2023-11-18T15:49:03;7.47;;;3.65;;
78013;SDS011;67222;50.182;8.734;2023-11-18T15:51:28;7.33;;;3.37;;
78013;SDS011;67222;50.182;8.734;2023-11-18T15:53:55;6.28;;;3.90;;
78013;SDS011;67222;50.182;8.734;2023-11-18T15:56:21;5.93;;;3.33;;
78013;SDS011;67222;50.182;8.734;2023-11-18T15:58:47;10.93;;;3.85;;
78013;SDS011;67222;50.182;8.734;2023-11-18T16:01:13;5.43;;;3.10;;
78013;SDS011;67222;50.182;8.734;2023-11-18T16:03:38;5.65;;;3.13;;
78013;SDS011;67222;50.182;8.734;2023-11-18T16:06:03;6.43;;;3.20;;
78013;SDS011;67222;50.182;8.734;2023-11-18T16:08:29;5.47;;;3.03;;
78013;SDS011;67222;50.182;8.734;2023-11-18T16:10:55;5.10;;;2.67;;
78013;SDS011;67222;50.182;8.734;2023-11-18T16:13:20;6.13;;;3.30;;
78013;SDS011;67222;50.182;8.734;2023-11-18T16:15:46;6.88;;;2.70;;
78013;SDS011;67222;50.182;8.734;2023-11-18T16:18:12;7.22;;;3.00;;
78013;SDS011;67222;50.182;8.734;2023-11-18T16:20:37;6.72;;;2.50;;
78013;SDS011;67222;50.182;8.734;2023-11-18T16:23:02;7.17;;;2.57;;
78013;SDS011;67222;50.182;8.734;2023-11-18T16:25:29;7.07;;;2.95;;
78013;SDS011;67222;50.182;8.734;2023-11-18T16:27:56;4.53;;;2.30;;
78013;SDS011;67222;50.182;8.734;2023-11-18T16:30:24;6.05;;;2.10;;
78013;SDS011;67222;50.182;8.734;2023-11-18T16:32:54;4.60;;;2.47;;
78013;SDS011;67222;50.182;8.734;2023-11-18T16:35:21;4.28;;;2.22;;
78013;SDS011;67222;50.182;8.734;2023-11-18T16:37:47;3.92;;;2.00;;
78013;SDS011;67222;50.182;8.734;2023-11-18T16:40:14;5.88;;;2.40;;
78013;SDS011;67222;50.182;8.734;2023-11-18T16:42:44;5.43;;;2.17;;
78013;SDS011;67222;50.182;8.734;2023-11-18T16:45:11;5.68;;;2.50;;
78013;SDS011;67222;50.182;8.734;2023-11-18T16:47:37;4.25;;;1.73;;
78013;SDS011;67222;50.182;8.734;2023-11-18T16:50:04;4.15;;;1.90;;
78013;SDS011;67222;50.182;8.734;2023-11-18T16:52:30;5.38;;;2.22;;
78013;SDS011;67222;50.182;8.734;2023-11-18T16:54:56;4.90;;;2.47;;
78013;SDS011;67222;50.182;8.734;2023-11-18T16:57:21;4.97;;;2.70;;
78013;SDS011;67222;50.182;8.734;2023-11-18T16:59:48;6.95;;;2.90;;
78013;SDS011;67222;50.182;8.734;2023-11-18T17:02:15;6.20;;;3.47;;
78013;SDS011;67222;50.182;8.734;2023-11-18T17:04:40;4.57;;;2.70;;
78013;SDS011;67222;50.182;8.734;2023-11-18T17:07:05;5.30;;;2.87;;
78013;SDS011;67222;50.182;8.734;2023-11-18T17:09:31;5.00;;;2.83;;
78013;SDS011;67222;50.182;8.734;2023-11-18T17:11:56;5.88;;;2.67;;
78013;SDS011;67222;50.182;8.734;2023-11-18T17:14:22;3.83;;;2.30;;
78013;SDS011;67222;50.182;8.734;2023-11-18T17:16:48;4.95;;;2.83;;
78013;SDS011;67222;50.182;8.734;2023-11-18T17:19:13;5.18;;;2.90;;
78013;SDS011;67222;50.182;8.734;2023-11-18T17:21:38;6.85;;;2.90;;
78013;SDS011;67222;50.182;8.734;2023-11-18T17:24:05;6.28;;;2.72;;
78013;SDS011;67222;50.182;8.734;2023-11-18T17:26:35;5.72;;;3.38;;
78013;SDS011;67222;50.182;8.734;2023-11-18T17:29:07;6.97;;;2.63;;
78013;SDS011;67222;50.182;8.734;2023-11-18T17:31:33;5.97;;;2.70;;
78013;SDS011;67222;50.182;8.734;2023-11-18T17:34:00;4.97;;;2.50;;
78013;SDS011;67222;50.182;8.734;2023-11-18T17:36:26;4.65;;;2.60;;
78013;SDS011;67222;50.182;8.734;2023-11-18T17:38:52;5.53;;;3.05;;
78013;SDS011;67222;50.182;8.734;2023-11-18T17:41:18;5.30;;;2.90;;
78013;SDS011;67222;50.182;8.734;2023-11-18T17:43:46;7.43;;;3.85;;
78013;SDS011;67222;50.182;8.734;2023-11-18T17:46:15;4.75;;;3.00;;
78013;SDS011;67222;50.182;8.734;2023-11-18T17:48:41;5.65;;;3.03;;
78013;SDS011;67222;50.182;8.734;2023-11-18T17:51:06;6.75;;;3.03;;
78013;SDS011;67222;50.182;8.734;2023-11-18T17:53:32;7.15;;;3.50;;
78013;SDS011;67222;50.182;8.734;2023-11-18T17:55:58;6.40;;;2.90;;
78013;SDS011;67222;50.182;8.734;2023-11-18T17:58:23;5.15;;;2.55;;
78013;SDS011;67222;50.182;8.734;2023-11-18T18:00:49;5.18;;;2.97;;
78013;SDS011;67222;50.182;8.734;2023-11-18T18:03:14;6.00;;;3.45;;
78013;SDS011;67222;50.182;8.734;2023-11-18T18:05:40;6.53;;;3.07;;
78013;SDS011;67222;50.182;8.734;2023-11-18T18:08:05;4.93;;;2.95;;
78013;SDS011;67222;50.182;8.734;2023-11-18T18:10:32;5.75;;;3.08;;
78013;SDS011;67222;50.182;8.734;2023-11-18T18:12:57;6.78;;;3.25;;
78013;SDS011;67222;50.182;8.734;2023-11-18T18:15:23;6.13;;;3.30;;
78013;SDS011;67222;50.182;8.734;2023-11-18T18:17:51;5.72;;;3.70;;
78013;SDS011;67222;50.182;8.734;2023-11-18T18:20:17;6.05;;;3.22;;
78013;SDS011;67222;50.182;8.734;2023-11-18T18:22:44;5.43;;;3.50;;
78013;SDS011;67222;50.182;8.734;2023-11-18T18:25:14;5.88;;;3.40;;
78013;SDS011;67222;50.182;8.734;2023-11-18T18:27:40;5.53;;;3.20;;
78013;SDS011;67222;50.182;8.734;2023-11-18T18:30:06;5.30;;;3.20;;
78013;SDS011;67222;50.182;8.734;2023-11-18T18:32:32;6.43;;;3.53;;
78013;SDS011;67222;50.182;8.734;2023-11-18T18:34:57;6.43;;;3.47;;
78013;SDS011;67222;50.182;8.734;2023-11-18T18:37:22;6.53;;;3.55;;
78013;SDS011;67222;50.182;8.734;2023-11-18T18:39:50;6.53;;;3.92;;
78013;SDS011;67222;50.182;8.734;2023-11-18T18:42:17;5.05;;;3.60;;
78013;SDS011;67222;50.182;8.734;2023-11-18T18:44:43;7.88;;;4.07;;
78013;SDS011;67222;50.182;8.734;2023-11-18T18:47:09;6.20;;;3.55;;
78013;SDS011;67222;50.182;8.734;2023-11-18T18:49:34;5.68;;;3.33;;
78013;SDS011;67222;50.182;8.734;2023-11-18T18:52:01;6.88;;;4.07;;
78013;SDS011;67222;50.182;8.734;2023-11-18T18:54:26;6.13;;;3.77;;
78013;SDS011;67222;50.182;8.734;2023-11-18T18:56:52;6.05;;;3.58;;
78013;SDS011;67222;50.182;8.734;2023-11-18T18:59:17;5.90;;;3.70;;
78013;SDS011;67222;50.182;8.734;2023-11-18T19:01:44;6.70;;;4.07;;
78013;SDS011;67222;50.182;8.734;2023-11-18T19:04:10;6.97;;;3.63;;
78013;SDS011;67222;50.182;8.734;2023-11-18T19:06:36;6.93;;;4.13;;
78013;SDS011;67222;50.182;8.734;2023-11-18T19:09:03;6.85;;;3.95;;
78013;SDS011;67222;50.182;8.734;2023-11-18T19:11:36;6.70;;;3.63;;
78013;SDS011;67222;50.182;8.734;2023-11-18T19:14:02;8.10;;;4.10;;
78013;SDS011;67222;50.182;8.734;2023-11-18T19:16:27;7.55;;;4.10;;
78013;SDS011;67222;50.182;8.734;2023-11-18T19:18:52;4.93;;;3.37;;
78013;SDS011;67222;50.182;8.734;2023-11-18T19:21:20;6.10;;;3.53;;
78013;SDS011;67222;50.182;8.734;2023-11-18T19:23:54;6.57;;;4.13;;
78013;SDS011;67222;50.182;8.734;2023-11-18T19:26:19;6.10;;;3.70;;
78013;SDS011;67222;50.182;8.734;2023-11-18T19:28:46;6.22;;;3.63;;
78013;SDS011;67222;50.182;8.734;2023-11-18T19:31:12;5.07;;;3.47;;
78013;SDS011;67222;50.182;8.734;2023-11-18T19:33:38;6.38;;;3.58;;
78013;SDS011;67222;50.182;8.734;2023-11-18T19:36:03;5.93;;;3.55;;
78013;SDS011;67222;50.182;8.734;2023-11-18T19:38:30;4.85;;;3.30;;
78013;SDS011;67222;50.182;8.734;2023-11-18T19:40:56;4.90;;;3.47;;
78013;SDS011;67222;50.182;8.734;2023-11-18T19:43:21;6.22;;;3.22;;
78013;SDS011;67222;50.182;8.734;2023-11-18T19:45:47;6.93;;;3.75;;
78013;SDS011;67222;50.182;8.734;2023-11-18T19:48:14;6.45;;;3.80;;
78013;SDS011;67222;50.182;8.734;2023-11-18T19:50:40;6.55;;;3.63;;
78013;SDS011;67222;50.182;8.734;2023-11-18T19:53:05;6.50;;;3.50;;
78013;SDS011;67222;50.182;8.734;2023-11-18T19:55:30;5.33;;;3.50;;
78013;SDS011;67222;50.182;8.734;2023-11-18T19:57:56;6.25;;;3.95;;
78013;SDS011;67222;50.182;8.734;2023-11-18T20:00:22;6.13;;;3.63;;
78013;SDS011;67222;50.182;8.734;2023-11-18T20:02:51;6.80;;;3.60;;
78013;SDS011;67222;50.182;8.734;2023-11-18T20:05:17;6.22;;;3.45;;
78013;SDS011;67222;50.182;8.734;2023-11-18T20:07:42;6.83;;;3.70;;
78013;SDS011;67222;50.182;8.734;2023-11-18T20:10:08;8.03;;;3.77;;
78013;SDS011;67222;50.182;8.734;2023-11-18T20:12:34;8.27;;;3.53;;
78013;SDS011;67222;50.182;8.734;2023-11-18T20:14:59;6.63;;;4.07;;
78013;SDS011;67222;50.182;8.734;2023-11-18T20:17:25;6.33;;;4.20;;
78013;SDS011;67222;50.182;8.734;2023-11-18T20:19:50;8.07;;;4.30;;
78013;SDS011;67222;50.182;8.734;2023-11-18T20:22:17;6.85;;;3.90;;
78013;SDS011;67222;50.182;8.734;2023-11-18T20:24:43;5.43;;;3.08;;
78013;SDS011;67222;50.182;8.734;2023-11-18T20:27:08;4.47;;;2.83;;
78013;SDS011;67222;50.182;8.734;2023-11-18T20:29:34;6.43;;;3.97;;
78013;SDS011;67222;50.182;8.734;2023-11-18T20:31:59;5.13;;;2.90;;
78013;SDS011;67222;50.182;8.734;2023-11-18T20:34:26;5.00;;;2.97;;
78013;SDS011;67222;50.182;8.734;2023-11-18T20:36:51;4.65;;;2.78;;
78013;SDS011;67222;50.182;8.734;2023-11-18T20:39:17;5.60;;;2.72;;
78013;SDS011;67222;50.182;8.734;2023-11-18T20:41:45;5.63;;;3.38;;
78013;SDS011;67222;50.182;8.734;2023-11-18T20:44:12;4.80;;;2.72;;
78013;SDS011;67222;50.182;8.734;2023-11-18T20:46:37;5.00;;;2.70;;
78013;SDS011;67222;50.182;8.734;2023-11-18T20:49:03;5.85;;;2.80;;
78013;SDS011;67222;50.182;8.734;2023-11-18T20:51:28;5.28;;;2.65;;
78013;SDS011;67222;50.182;8.734;2023-11-18T20:53:54;5.73;;;2.87;;
78013;SDS011;67222;50.182;8.734;2023-11-18T20:56:19;6.47;;;2.63;;
78013;SDS011;67222;50.182;8.734;2023-11-18T20:58:46;4.80;;;2.40;;
78013;SDS011;67222;50.182;8.734;2023-11-18T21:01:12;4.40;;;2.72;;
78013;SDS011;67222;50.182;8.734;2023-11-18T21:03:40;5.82;;;2.95;;
78013;SDS011;67222;50.182;8.734;2023-11-18T21:06:07;4.22;;;2.70;;
78013;SDS011;67222;50.182;8.734;2023-11-18T21:08:32;6.78;;;3.15;;
78013;SDS011;67222;50.182;8.734;2023-11-18T21:10:58;3.93;;;2.83;;
78013;SDS011;67222;50.182;8.734;2023-11-18T21:13:23;5.53;;;3.00;;
78013;SDS011;67222;50.182;8.734;2023-11-18T21:15:50;4.85;;;2.83;;
78013;SDS011;67222;50.182;8.734;2023-11-18T21:18:15;4.93;;;3.13;;
78013;SDS011;67222;50.182;8.734;2023-11-18T21:20:41;6.43;;;3.63;;
78013;SDS011;67222;50.182;8.734;2023-11-18T21:23:07;6.80;;;2.97;;
78013;SDS011;67222;50.182;8.734;2023-11-18T21:25:32;6.60;;;3.67;;
78013;SDS011;67222;50.182;8.734;2023-11-18T21:27:58;5.35;;;3.25;;
78013;SDS011;67222;50.182;8.734;2023-11-18T21:30:24;4.80;;;3.13;;
78013;SDS011;67222;50.182;8.734;2023-11-18T21:32:50;6.10;;;3.25;;
78013;SDS011;67222;50.182;8.734;2023-11-18T21:35:17;6.28;;;3.67;;
78013;SDS011;67222;50.182;8.734;2023-11-18T21:37:48;5.40;;;3.20;;
78013;SDS011;67222;50.182;8.734;2023-11-18T21:40:15;7.60;;;3.45;;
78013;SDS011;67222;50.182;8.734;2023-11-18T21:42:42;7.20;;;3.95;;
78013;SDS011;67222;50.182;8.734;2023-11-18T21:45:08;6.40;;;3.47;;
78013;SDS011;67222;50.182;8.734;2023-11-18T21:47:35;5.38;;;3.58;;
78013;SDS011;67222;50.182;8.734;2023-11-18T21:50:01;6.35;;;3.72;;